createdAt,value
2018-01-01T00:00:24.713Z,0
2018-01-01T00:01:09.684Z,0
2018-01-01T00:01:37.726Z,0
2018-01-01T00:02:08.552Z,0
2018-01-01T00:02:51.851Z,0
2018-01-01T00:03:50.403Z,0
2018-01-01T00:04:19.235Z,0
2018-01-01T00:04:47.785Z,0
2018-01-01T00:05:30.933Z,0
2018-01-01T00:06:13.489Z,0
2018-01-01T00:06:42.839Z,0
2018-01-01T00:07:11.269Z,0
2018-01-01T00:07:54.095Z,0
2018-01-01T00:08:22.122Z,0
2018-01-01T00:08:50.583Z,0
2018-01-01T00:09:19.539Z,0
2018-01-01T00:10:04.272Z,0
2018-01-01T00:10:34.897Z,0
2018-01-01T00:11:03.773Z,0
2018-01-01T00:11:31.784Z,0
2018-01-01T00:12:00.953Z,0
2018-01-01T00:12:29.487Z,0
2018-01-01T00:13:55.744Z,0
2018-01-01T00:14:24.206Z,0
2018-01-01T00:14:52.651Z,0
2018-01-01T00:15:22.747Z,0
2018-01-01T00:16:20.921Z,0
2018-01-01T00:16:49.367Z,0
2018-01-01T00:17:17.379Z,0
2018-01-01T00:17:46.912Z,0
2018-01-01T00:18:15.671Z,0
2018-01-01T00:18:44.247Z,0
2018-01-01T00:19:13.384Z,0
2018-01-01T00:19:41.860Z,0
2018-01-01T00:20:10.727Z,0
2018-01-01T00:20:53.181Z,0
2018-01-01T00:21:22.354Z,0
2018-01-01T00:21:51.948Z,0
2018-01-01T00:22:20.807Z,0
2018-01-01T00:22:50.027Z,0
2018-01-01T00:23:18.775Z,0
2018-01-01T00:23:47.270Z,0
2018-01-01T00:24:15.814Z,0
2018-01-01T00:25:27.047Z,0
2018-01-01T00:25:55.830Z,0
2018-01-01T00:26:23.858Z,0
2018-01-01T00:26:52.835Z,0
2018-01-01T00:27:21.844Z,0
2018-01-01T00:27:50.387Z,0
2018-01-01T00:28:18.405Z,0
2018-01-01T00:29:01.950Z,0
2018-01-01T00:29:29.985Z,0
2018-01-01T00:30:00.796Z,0
2018-01-01T00:30:29.709Z,0
2018-01-01T00:30:57.972Z,0
2018-01-01T00:31:25.993Z,0
2018-01-01T00:33:20.587Z,0
2018-01-01T00:34:17.863Z,0
2018-01-01T00:35:00.407Z,0
2018-01-01T00:35:43.967Z,0
2018-01-01T00:36:54.513Z,0
2018-01-01T00:37:22.780Z,0
2018-01-01T00:37:51.651Z,0
2018-01-01T00:38:35.396Z,0
2018-01-01T00:39:04.124Z,0
2018-01-01T00:39:32.976Z,0
2018-01-01T00:40:01.388Z,0
2018-01-01T00:40:30.058Z,0
2018-01-01T00:41:13.620Z,0
2018-01-01T00:42:40.083Z,0
2018-01-01T00:43:08.240Z,0
2018-01-01T00:43:37.606Z,0
2018-01-01T00:44:07.357Z,0
2018-01-01T00:44:55.186Z,0
2018-01-01T00:45:24.985Z,0
2018-01-01T00:45:54.492Z,0
2018-01-01T00:46:22.773Z,0
2018-01-01T00:47:39.915Z,0
2018-01-01T00:48:08.360Z,0
2018-01-01T00:49:07.242Z,0
2018-01-01T00:49:35.656Z,0
2018-01-01T00:50:18.418Z,0
2018-01-01T00:50:46.877Z,0
2018-01-01T00:51:30.205Z,0
2018-01-01T00:51:58.756Z,0
2018-01-01T00:52:27.498Z,0
2018-01-01T00:52:57.330Z,0
2018-01-01T00:53:55.367Z,0
2018-01-01T00:55:08.387Z,0
2018-01-01T00:55:37.189Z,0
2018-01-01T00:56:20.150Z,0
2018-01-01T00:57:03.620Z,0
2018-01-01T00:57:32.190Z,0
2018-01-01T00:58:01.387Z,0
2018-01-01T00:58:30.752Z,0
2018-01-01T00:59:00.967Z,0
2018-01-01T00:59:29.738Z,0
2018-01-01T01:00:13.430Z,0
2018-01-01T01:00:43.941Z,0
2018-01-01T01:01:12.535Z,0
2018-01-01T01:01:41.202Z,0
2018-01-01T01:02:10.546Z,0
2018-01-01T01:02:53.460Z,0
2018-01-01T01:03:36.773Z,0
2018-01-01T01:04:05.221Z,0
2018-01-01T01:04:34.012Z,0
2018-01-01T01:05:02.451Z,0
2018-01-01T01:05:44.998Z,0
2018-01-01T01:07:24.629Z,0
2018-01-01T01:07:57.037Z,0
2018-01-01T01:08:25.732Z,0
2018-01-01T01:08:59.840Z,0
2018-01-01T01:09:28.990Z,0
2018-01-01T01:09:57.565Z,0
2018-01-01T01:10:41.695Z,0
2018-01-01T01:12:51.794Z,0
2018-01-01T01:13:20.340Z,0
2018-01-01T01:14:35.969Z,0
2018-01-01T01:15:04.998Z,0
2018-01-01T01:16:03.191Z,0
2018-01-01T01:16:31.863Z,0
2018-01-01T01:16:59.885Z,0
2018-01-01T01:17:29.703Z,0
2018-01-01T01:18:13.209Z,0
2018-01-01T01:18:42.907Z,0
2018-01-01T01:19:11.758Z,0
2018-01-01T01:19:44.151Z,0
2018-01-01T01:20:14.961Z,0
2018-01-01T01:20:43.383Z,0
2018-01-01T01:21:11.413Z,0
2018-01-01T01:21:39.849Z,0
2018-01-01T01:22:22.741Z,0
2018-01-01T01:22:51.180Z,0
2018-01-01T01:23:19.974Z,0
2018-01-01T01:23:48.828Z,0
2018-01-01T01:25:14.696Z,0
2018-01-01T01:26:26.256Z,0
2018-01-01T01:27:09.603Z,0
2018-01-01T01:27:38.220Z,0
2018-01-01T01:28:06.242Z,0
2018-01-01T01:28:37.629Z,0
2018-01-01T01:29:06.373Z,0
2018-01-01T01:29:34.382Z,0
2018-01-01T01:30:02.842Z,0
2018-01-01T01:30:31.094Z,0
2018-01-01T01:31:00.387Z,0
2018-01-01T01:31:44.415Z,0
2018-01-01T01:32:12.933Z,0
2018-01-01T01:32:52.458Z,0
2018-01-01T01:33:24.208Z,0
2018-01-01T01:33:53.876Z,0
2018-01-01T01:35:05.889Z,0
2018-01-01T01:35:48.883Z,0
2018-01-01T01:36:31.799Z,0
2018-01-01T01:37:00.264Z,0
2018-01-01T01:37:28.476Z,0
2018-01-01T01:37:57.700Z,0
2018-01-01T01:38:26.938Z,0
2018-01-01T01:38:55.593Z,0
2018-01-01T01:40:16.425Z,0
2018-01-01T01:40:44.859Z,0
2018-01-01T01:41:15.171Z,0
2018-01-01T01:41:43.876Z,0
2018-01-01T01:42:27.998Z,0
2018-01-01T01:43:11.311Z,0
2018-01-01T01:43:39.420Z,0
2018-01-01T01:44:08.302Z,0
2018-01-01T01:46:17.415Z,0
2018-01-01T01:46:45.864Z,0
2018-01-01T01:47:58.436Z,0
2018-01-01T01:48:27.484Z,0
2018-01-01T01:48:56.019Z,0
2018-01-01T01:49:24.043Z,0
2018-01-01T01:49:53.714Z,0
2018-01-01T01:50:21.728Z,0
2018-01-01T01:50:50.779Z,0
2018-01-01T01:51:19.731Z,0
2018-01-01T01:51:47.665Z,0
2018-01-01T01:52:15.695Z,0
2018-01-01T01:52:44.537Z,0
2018-01-01T01:53:13.033Z,0
2018-01-01T01:54:10.963Z,0
2018-01-01T01:54:39.720Z,0
2018-01-01T01:55:08.958Z,0
2018-01-01T01:55:37.193Z,0
2018-01-01T01:56:05.642Z,0
2018-01-01T01:56:33.674Z,0
2018-01-01T01:57:02.220Z,0
2018-01-01T01:57:30.154Z,0
2018-01-01T01:57:59.024Z,0
2018-01-01T01:58:27.173Z,0
2018-01-01T01:58:55.297Z,0
2018-01-01T01:59:24.059Z,0
2018-01-01T02:00:07.373Z,0
2018-01-01T02:00:36.327Z,0
2018-01-01T02:01:05.336Z,0
2018-01-01T02:01:34.189Z,0
2018-01-01T02:02:02.510Z,0
2018-01-01T02:02:30.754Z,0
2018-01-01T02:02:59.192Z,0
2018-01-01T02:03:27.619Z,0
2018-01-01T02:03:56.058Z,0
2018-01-01T02:04:25.007Z,0
2018-01-01T02:04:54.599Z,0
2018-01-01T02:05:24.828Z,0
2018-01-01T02:05:53.647Z,0
2018-01-01T02:06:22.492Z,0
2018-01-01T02:06:51.718Z,0
2018-01-01T02:07:19.750Z,0
2018-01-01T02:07:47.764Z,0
2018-01-01T02:08:15.794Z,0
2018-01-01T02:08:44.678Z,0
2018-01-01T02:09:29.241Z,0
2018-01-01T02:09:57.265Z,0
2018-01-01T02:10:25.940Z,0
2018-01-01T02:10:54.396Z,0
2018-01-01T02:11:37.168Z,0
2018-01-01T02:12:05.582Z,0
2018-01-01T02:12:35.659Z,0
2018-01-01T02:13:05.405Z,0
2018-01-01T02:13:34.551Z,0
2018-01-01T02:14:17.985Z,0
2018-01-01T02:14:46.454Z,0
2018-01-01T02:15:29.942Z,0
2018-01-01T02:16:12.640Z,0
2018-01-01T02:16:40.904Z,0
2018-01-01T02:17:10.102Z,0
2018-01-01T02:17:54.955Z,0
2018-01-01T02:18:38.281Z,0
2018-01-01T02:19:06.650Z,0
2018-01-01T02:19:37.208Z,0
2018-01-01T02:20:06.106Z,0
2018-01-01T02:20:34.546Z,0
2018-01-01T02:21:17.740Z,0
2018-01-01T02:22:00.854Z,0
2018-01-01T02:22:44.413Z,0
2018-01-01T02:23:13.181Z,0
2018-01-01T02:23:44.353Z,0
2018-01-01T02:24:27.905Z,0
2018-01-01T02:24:58.067Z,0
2018-01-01T02:25:26.215Z,0
2018-01-01T02:26:09.263Z,0
2018-01-01T02:26:38.839Z,0
2018-01-01T02:28:09.413Z,0
2018-01-01T02:28:37.454Z,0
2018-01-01T02:29:21.226Z,0
2018-01-01T02:29:49.373Z,0
2018-01-01T02:30:23.197Z,0
2018-01-01T02:30:51.646Z,0
2018-01-01T02:31:20.312Z,0
2018-01-01T02:31:50.082Z,0
2018-01-01T02:32:18.024Z,0
2018-01-01T02:32:46.062Z,0
2018-01-01T02:33:43.739Z,0
2018-01-01T02:34:26.296Z,0
2018-01-01T02:34:55.194Z,0
2018-01-01T02:35:24.424Z,0
2018-01-01T02:35:53.098Z,0
2018-01-01T02:36:21.107Z,0
2018-01-01T02:36:50.785Z,0
2018-01-01T02:37:34.143Z,0
2018-01-01T02:38:31.219Z,0
2018-01-01T02:38:59.893Z,0
2018-01-01T02:39:29.205Z,0
2018-01-01T02:39:59.141Z,0
2018-01-01T02:40:27.201Z,0
2018-01-01T02:40:56.288Z,0
2018-01-01T02:41:40.375Z,0
2018-01-01T02:42:23.307Z,0
2018-01-01T02:43:50.034Z,0
2018-01-01T02:45:00.925Z,0
2018-01-01T02:46:42.178Z,0
2018-01-01T02:47:54.121Z,0
2018-01-01T02:48:23.780Z,0
2018-01-01T02:49:36.402Z,0
2018-01-01T02:50:20.168Z,0
2018-01-01T02:51:04.015Z,0
2018-01-01T02:51:32.441Z,0
2018-01-01T02:52:16.049Z,0
2018-01-01T02:52:43.981Z,0
2018-01-01T02:53:12.380Z,0
2018-01-01T02:53:55.715Z,0
2018-01-01T02:54:24.970Z,0
2018-01-01T02:54:54.513Z,0
2018-01-01T02:55:37.422Z,0
2018-01-01T02:56:05.635Z,0
2018-01-01T02:57:32.528Z,0
2018-01-01T02:58:01.192Z,0
2018-01-01T02:58:29.639Z,0
2018-01-01T02:59:00.008Z,0
2018-01-01T02:59:58.814Z,0
2018-01-01T03:00:27.563Z,0
2018-01-01T03:01:39.066Z,0
2018-01-01T03:02:07.122Z,0
2018-01-01T03:02:50.468Z,0
2018-01-01T03:03:33.587Z,0
2018-01-01T03:04:02.457Z,0
2018-01-01T03:04:30.695Z,0
2018-01-01T03:05:13.252Z,0
2018-01-01T03:05:42.103Z,0
2018-01-01T03:06:24.890Z,0
2018-01-01T03:07:38.142Z,0
2018-01-01T03:08:20.891Z,0
2018-01-01T03:09:17.991Z,0
2018-01-01T03:10:01.153Z,0
2018-01-01T03:10:45.186Z,0
2018-01-01T03:12:17.669Z,0
2018-01-01T03:13:00.209Z,0
2018-01-01T03:13:43.196Z,0
2018-01-01T03:14:55.938Z,0
2018-01-01T03:15:25.309Z,0
2018-01-01T03:15:53.642Z,0
2018-01-01T03:16:22.449Z,0
2018-01-01T03:16:51.809Z,0
2018-01-01T03:17:20.150Z,0
2018-01-01T03:17:50.166Z,0
2018-01-01T03:18:33.780Z,0
2018-01-01T03:19:01.800Z,0
2018-01-01T03:19:30.689Z,0
2018-01-01T03:20:13.193Z,0
2018-01-01T03:20:41.877Z,0
2018-01-01T03:21:09.912Z,0
2018-01-01T03:21:38.612Z,0
2018-01-01T03:22:22.469Z,0
2018-01-01T03:22:50.399Z,0
2018-01-01T03:23:33.685Z,0
2018-01-01T03:24:16.645Z,0
2018-01-01T03:25:27.749Z,0
2018-01-01T03:26:53.695Z,0
2018-01-01T03:27:38.364Z,0
2018-01-01T03:28:06.397Z,0
2018-01-01T03:28:34.425Z,0
2018-01-01T03:29:04.443Z,0
2018-01-01T03:29:47.416Z,0
2018-01-01T03:30:15.856Z,0
2018-01-01T03:30:44.429Z,0
2018-01-01T03:31:12.661Z,0
2018-01-01T03:31:41.487Z,0
2018-01-01T03:32:09.499Z,0
2018-01-01T03:32:38.305Z,0
2018-01-01T03:33:06.559Z,0
2018-01-01T03:33:35.018Z,0
2018-01-01T03:34:04.251Z,0
2018-01-01T03:34:36.471Z,0
2018-01-01T03:35:05.082Z,0
2018-01-01T03:35:33.254Z,0
2018-01-01T03:36:15.807Z,0
2018-01-01T03:36:45.195Z,0
2018-01-01T03:38:10.548Z,0
2018-01-01T03:38:53.848Z,0
2018-01-01T03:39:22.078Z,0
2018-01-01T03:39:50.527Z,0
2018-01-01T03:40:19.819Z,0
2018-01-01T03:40:47.825Z,0
2018-01-01T03:41:45.626Z,0
2018-01-01T03:42:29.005Z,0
2018-01-01T03:42:56.926Z,0
2018-01-01T03:44:37.456Z,0
2018-01-01T03:45:05.382Z,0
2018-01-01T03:45:50.085Z,0
2018-01-01T03:46:18.088Z,0
2018-01-01T03:46:46.627Z,0
2018-01-01T03:47:15.327Z,0
2018-01-01T03:47:44.188Z,0
2018-01-01T03:48:12.422Z,0
2018-01-01T03:48:41.715Z,0
2018-01-01T03:49:11.773Z,0
2018-01-01T03:49:40.741Z,0
2018-01-01T03:50:09.453Z,0
2018-01-01T03:50:53.756Z,0
2018-01-01T03:51:22.645Z,0
2018-01-01T03:51:50.896Z,0
2018-01-01T03:52:18.924Z,0
2018-01-01T03:52:47.679Z,0
2018-01-01T03:53:15.616Z,0
2018-01-01T03:53:44.060Z,0
2018-01-01T03:54:12.318Z,0
2018-01-01T03:54:55.404Z,0
2018-01-01T03:55:24.633Z,0
2018-01-01T03:55:53.200Z,0
2018-01-01T03:57:06.940Z,0
2018-01-01T03:57:49.471Z,0
2018-01-01T03:58:18.015Z,0
2018-01-01T03:58:46.916Z,0
2018-01-01T03:59:45.503Z,0
2018-01-01T04:00:14.357Z,0
2018-01-01T04:00:43.012Z,0
2018-01-01T04:01:12.455Z,0
2018-01-01T04:01:41.329Z,0
2018-01-01T04:04:19.288Z,0
2018-01-01T04:04:48.517Z,0
2018-01-01T04:05:31.280Z,0
2018-01-01T04:06:00.316Z,0
2018-01-01T04:07:14.260Z,0
2018-01-01T04:07:43.275Z,0
2018-01-01T04:08:11.712Z,0
2018-01-01T04:08:39.967Z,0
2018-01-01T04:09:08.910Z,0
2018-01-01T04:09:37.625Z,0
2018-01-01T04:10:07.858Z,0
2018-01-01T04:10:35.872Z,0
2018-01-01T04:11:47.828Z,0
2018-01-01T04:12:16.709Z,0
2018-01-01T04:12:59.657Z,0
2018-01-01T04:13:27.660Z,0
2018-01-01T04:13:55.686Z,0
2018-01-01T04:14:23.919Z,0
2018-01-01T04:14:52.786Z,0
2018-01-01T04:16:10.230Z,0
2018-01-01T04:16:38.766Z,0
2018-01-01T04:17:22.226Z,0
2018-01-01T04:17:50.176Z,0
2018-01-01T04:18:33.263Z,0
2018-01-01T04:19:45.782Z,0
2018-01-01T04:20:28.792Z,0
2018-01-01T04:21:12.286Z,0
2018-01-01T04:21:40.743Z,0
2018-01-01T04:22:08.747Z,0
2018-01-01T04:22:37.769Z,0
2018-01-01T04:23:05.807Z,0
2018-01-01T04:23:34.745Z,0
2018-01-01T04:24:03.621Z,0
2018-01-01T04:24:31.976Z,0
2018-01-01T04:25:01.014Z,0
2018-01-01T04:25:29.961Z,0
2018-01-01T04:25:59.354Z,0
2018-01-01T04:26:28.969Z,0
2018-01-01T04:27:12.477Z,0
2018-01-01T04:27:43.240Z,0
2018-01-01T04:28:26.491Z,0
2018-01-01T04:28:54.515Z,0
2018-01-01T04:29:23.233Z,0
2018-01-01T04:31:19.689Z,0
2018-01-01T04:31:48.130Z,0
2018-01-01T04:32:30.819Z,0
2018-01-01T04:32:58.772Z,0
2018-01-01T04:33:42.157Z,0
2018-01-01T04:34:11.250Z,0
2018-01-01T04:34:54.124Z,0
2018-01-01T04:35:24.113Z,0
2018-01-01T04:36:21.540Z,0
2018-01-01T04:37:04.915Z,0
2018-01-01T04:38:59.959Z,0
2018-01-01T04:39:43.038Z,0
2018-01-01T04:40:11.488Z,0
2018-01-01T04:40:40.016Z,0
2018-01-01T04:41:08.604Z,0
2018-01-01T04:42:20.156Z,0
2018-01-01T04:42:49.024Z,0
2018-01-01T04:43:17.817Z,0
2018-01-01T04:43:46.357Z,0
2018-01-01T04:45:13.134Z,0
2018-01-01T04:45:41.794Z,0
2018-01-01T04:46:09.822Z,0
2018-01-01T04:46:53.716Z,0
2018-01-01T04:47:36.188Z,0
2018-01-01T04:48:04.994Z,0
2018-01-01T04:48:33.030Z,0
2018-01-01T04:49:44.450Z,0
2018-01-01T04:50:12.484Z,0
2018-01-01T04:50:40.501Z,0
2018-01-01T04:51:25.258Z,0
2018-01-01T04:51:53.294Z,0
2018-01-01T04:52:38.278Z,0
2018-01-01T04:53:06.725Z,0
2018-01-01T04:53:34.713Z,0
2018-01-01T04:54:03.169Z,0
2018-01-01T04:54:31.176Z,0
2018-01-01T04:54:59.362Z,0
2018-01-01T04:55:27.937Z,0
2018-01-01T04:55:56.833Z,0
2018-01-01T04:56:24.996Z,0
2018-01-01T04:57:36.783Z,0
2018-01-01T04:58:04.800Z,0
2018-01-01T04:58:33.459Z,0
2018-01-01T04:59:02.437Z,0
2018-01-01T04:59:30.366Z,0
2018-01-01T05:00:43.286Z,0
2018-01-01T05:01:12.515Z,0
2018-01-01T05:01:40.942Z,0
2018-01-01T05:02:08.875Z,0
2018-01-01T05:03:05.934Z,0
2018-01-01T05:04:03.442Z,0
2018-01-01T05:04:31.886Z,0
2018-01-01T05:05:28.969Z,0
2018-01-01T05:05:58.950Z,0
2018-01-01T05:06:27.893Z,0
2018-01-01T05:07:10.543Z,0
2018-01-01T05:07:55.072Z,0
2018-01-01T05:08:24.047Z,0
2018-01-01T05:09:30.122Z,0
2018-01-01T05:09:58.492Z,0
2018-01-01T05:10:27.038Z,0
2018-01-01T05:11:10.922Z,0
2018-01-01T05:11:39.275Z,0
2018-01-01T05:12:08.055Z,0
2018-01-01T05:12:35.983Z,0
2018-01-01T05:13:04.545Z,0
2018-01-01T05:13:32.908Z,0
2018-01-01T05:15:15.320Z,0
2018-01-01T05:15:43.353Z,0
2018-01-01T05:16:28.460Z,0
2018-01-01T05:16:58.230Z,0
2018-01-01T05:17:26.597Z,0
2018-01-01T05:18:24.454Z,0
2018-01-01T05:18:52.916Z,0
2018-01-01T05:20:33.364Z,0
2018-01-01T05:21:01.620Z,0
2018-01-01T05:21:30.919Z,0
2018-01-01T05:21:59.379Z,0
2018-01-01T05:22:42.150Z,0
2018-01-01T05:23:10.970Z,0
2018-01-01T05:23:54.053Z,0
2018-01-01T05:24:23.380Z,0
2018-01-01T05:24:51.620Z,0
2018-01-01T05:25:19.631Z,0
2018-01-01T05:25:54.495Z,0
2018-01-01T05:26:24.120Z,0
2018-01-01T05:27:07.443Z,0
2018-01-01T05:28:07.570Z,0
2018-01-01T05:29:20.257Z,0
2018-01-01T05:30:32.879Z,0
2018-01-01T05:32:15.183Z,0
2018-01-01T05:33:27.906Z,0
2018-01-01T05:33:58.415Z,0
2018-01-01T05:34:27.374Z,0
2018-01-01T05:34:56.658Z,0
2018-01-01T05:35:25.433Z,0
2018-01-01T05:35:55.526Z,0
2018-01-01T05:36:24.315Z,0
2018-01-01T05:36:52.368Z,0
2018-01-01T05:37:20.547Z,0
2018-01-01T05:37:50.730Z,0
2018-01-01T05:38:19.462Z,0
2018-01-01T05:39:32.275Z,0
2018-01-01T05:40:01.823Z,0
2018-01-01T05:40:30.363Z,0
2018-01-01T05:40:59.180Z,0
2018-01-01T05:41:56.258Z,0
2018-01-01T05:42:24.444Z,0
2018-01-01T05:43:22.534Z,0
2018-01-01T05:43:50.997Z,0
2018-01-01T05:44:34.291Z,0
2018-01-01T05:45:02.227Z,0
2018-01-01T05:45:30.759Z,0
2018-01-01T05:45:59.039Z,0
2018-01-01T05:46:27.475Z,0
2018-01-01T05:46:56.123Z,0
2018-01-01T05:47:25.033Z,0
2018-01-01T05:47:53.828Z,0
2018-01-01T05:48:37.364Z,0
2018-01-01T05:49:05.813Z,0
2018-01-01T05:49:35.049Z,0
2018-01-01T05:50:03.983Z,0
2018-01-01T05:50:32.411Z,0
2018-01-01T05:51:17.881Z,0
2018-01-01T05:51:45.899Z,0
2018-01-01T05:52:59.641Z,0
2018-01-01T05:53:28.280Z,0
2018-01-01T05:53:56.731Z,0
2018-01-01T05:54:39.684Z,0
2018-01-01T05:55:07.685Z,0
2018-01-01T05:55:36.484Z,0
2018-01-01T05:56:05.071Z,0
2018-01-01T05:56:33.471Z,0
2018-01-01T05:57:31.502Z,0
2018-01-01T05:58:00.035Z,0
2018-01-01T05:58:43.273Z,0
2018-01-01T05:59:12.568Z,0
2018-01-01T05:59:40.580Z,0
2018-01-01T06:01:21.192Z,0
2018-01-01T06:02:04.951Z,0
2018-01-01T06:03:11.053Z,0
2018-01-01T06:03:39.429Z,0
2018-01-01T06:04:51.020Z,0
2018-01-01T06:05:19.894Z,0
2018-01-01T06:06:31.526Z,0
2018-01-01T06:07:00.063Z,0
2018-01-01T06:07:43.314Z,0
2018-01-01T06:08:41.243Z,0
2018-01-01T06:09:25.812Z,0
2018-01-01T06:09:53.736Z,0
2018-01-01T06:10:21.989Z,0
2018-01-01T06:10:50.006Z,0
2018-01-01T06:11:19.712Z,0
2018-01-01T06:11:48.082Z,0
2018-01-01T06:12:16.583Z,0
2018-01-01T06:12:44.522Z,0
2018-01-01T06:13:12.776Z,0
2018-01-01T06:13:56.677Z,0
2018-01-01T06:14:25.501Z,0
2018-01-01T06:15:38.802Z,0
2018-01-01T06:16:07.244Z,0
2018-01-01T06:16:36.438Z,0
2018-01-01T06:17:19.842Z,0
2018-01-01T06:18:02.598Z,0
2018-01-01T06:18:32.820Z,0
2018-01-01T06:19:01.067Z,0
2018-01-01T06:19:30.615Z,0
2018-01-01T06:21:13.740Z,0
2018-01-01T06:21:42.089Z,0
2018-01-01T06:23:23.634Z,0
2018-01-01T06:24:07.003Z,0
2018-01-01T06:24:35.728Z,0
2018-01-01T06:25:04.104Z,0
2018-01-01T06:25:32.417Z,0
2018-01-01T06:26:01.575Z,0
2018-01-01T06:26:31.380Z,0
2018-01-01T06:27:00.054Z,0
2018-01-01T06:27:28.502Z,0
2018-01-01T06:27:56.532Z,0
2018-01-01T06:28:24.565Z,0
2018-01-01T06:28:53.003Z,0
2018-01-01T06:29:22.781Z,0
2018-01-01T06:29:51.200Z,0
2018-01-01T06:30:19.116Z,0
2018-01-01T06:30:47.485Z,0
2018-01-01T06:31:16.050Z,0
2018-01-01T06:31:44.919Z,0
2018-01-01T06:32:13.262Z,0
2018-01-01T06:32:44.681Z,0
2018-01-01T06:33:13.751Z,0
2018-01-01T06:34:27.208Z,0
2018-01-01T06:35:52.540Z,0
2018-01-01T06:36:21.386Z,0
2018-01-01T06:36:50.139Z,0
2018-01-01T06:37:18.830Z,0
2018-01-01T06:37:47.684Z,0
2018-01-01T06:40:12.207Z,0
2018-01-01T06:40:54.760Z,0
2018-01-01T06:41:23.112Z,0
2018-01-01T06:42:07.283Z,0
2018-01-01T06:42:53.097Z,0
2018-01-01T06:43:21.069Z,0
2018-01-01T06:45:18.245Z,0
2018-01-01T06:45:46.716Z,0
2018-01-01T06:46:15.573Z,0
2018-01-01T06:47:00.682Z,0
2018-01-01T06:47:29.106Z,0
2018-01-01T06:47:58.343Z,0
2018-01-01T06:48:27.073Z,0
2018-01-01T06:48:55.654Z,0
2018-01-01T06:49:23.654Z,0
2018-01-01T06:49:51.677Z,0
2018-01-01T06:50:20.286Z,0
2018-01-01T06:50:49.237Z,0
2018-01-01T06:51:18.470Z,0
2018-01-01T06:51:47.664Z,0
2018-01-01T06:52:31.118Z,0
2018-01-01T06:53:29.061Z,0
2018-01-01T06:53:57.873Z,0
2018-01-01T06:54:27.252Z,0
2018-01-01T06:56:28.115Z,0
2018-01-01T06:56:57.143Z,0
2018-01-01T06:57:26.235Z,0
2018-01-01T06:57:55.014Z,0
2018-01-01T06:58:25.022Z,0
2018-01-01T06:58:53.041Z,0
2018-01-01T06:59:36.372Z,0
2018-01-01T07:00:04.824Z,0
2018-01-01T07:00:33.276Z,0
2018-01-01T07:01:01.603Z,0
2018-01-01T07:01:31.579Z,0
2018-01-01T07:01:59.608Z,0
2018-01-01T07:02:27.620Z,0
2018-01-01T07:03:13.379Z,0
2018-01-01T07:04:26.260Z,0
2018-01-01T07:04:54.192Z,0
2018-01-01T07:05:24.284Z,0
2018-01-01T07:06:06.829Z,0
2018-01-01T07:06:35.271Z,0
2018-01-01T07:07:03.310Z,0
2018-01-01T07:08:16.899Z,0
2018-01-01T07:08:45.689Z,0
2018-01-01T07:09:43.557Z,0
2018-01-01T07:10:12.868Z,0
2018-01-01T07:10:41.222Z,0
2018-01-01T07:11:12.198Z,0
2018-01-01T07:11:41.064Z,0
2018-01-01T07:12:24.039Z,0
2018-01-01T07:13:22.215Z,0
2018-01-01T07:13:50.651Z,0
2018-01-01T07:14:19.679Z,0
2018-01-01T07:14:48.641Z,0
2018-01-01T07:15:31.475Z,0
2018-01-01T07:16:00.948Z,0
2018-01-01T07:16:29.380Z,0
2018-01-01T07:16:58.634Z,0
2018-01-01T07:17:27.754Z,0
2018-01-01T07:17:56.052Z,0
2018-01-01T07:18:24.092Z,0
2018-01-01T07:18:52.225Z,0
2018-01-01T07:19:20.459Z,0
2018-01-01T07:19:51.229Z,0
2018-01-01T07:20:20.217Z,0
2018-01-01T07:21:02.758Z,0
2018-01-01T07:21:32.194Z,0
2018-01-01T07:22:00.214Z,0
2018-01-01T07:22:43.673Z,0
2018-01-01T07:23:12.381Z,0
2018-01-01T07:24:23.622Z,0
2018-01-01T07:24:55.452Z,0
2018-01-01T07:25:23.895Z,0
2018-01-01T07:25:53.551Z,0
2018-01-01T07:26:21.492Z,0
2018-01-01T07:27:05.805Z,0
2018-01-01T07:27:48.789Z,0
2018-01-01T07:28:16.853Z,0
2018-01-01T07:28:44.879Z,0
2018-01-01T07:29:27.352Z,0
2018-01-01T07:29:55.789Z,0
2018-01-01T07:30:25.029Z,0
2018-01-01T07:30:53.447Z,0
2018-01-01T07:31:25.145Z,0
2018-01-01T07:32:22.489Z,0
2018-01-01T07:33:20.507Z,0
2018-01-01T07:34:03.496Z,0
2018-01-01T07:34:32.153Z,0
2018-01-01T07:35:00.846Z,0
2018-01-01T07:35:29.483Z,0
2018-01-01T07:35:57.498Z,0
2018-01-01T07:36:25.976Z,0
2018-01-01T07:36:54.418Z,0
2018-01-01T07:37:22.587Z,0
2018-01-01T07:37:50.941Z,0
2018-01-01T07:38:19.744Z,0
2018-01-01T07:39:03.617Z,0
2018-01-01T07:39:46.581Z,0
2018-01-01T07:40:15.094Z,0
2018-01-01T07:41:27.851Z,0
2018-01-01T07:42:10.910Z,0
2018-01-01T07:43:07.888Z,0
2018-01-01T07:44:19.432Z,0
2018-01-01T07:45:02.773Z,0
2018-01-01T07:46:15.539Z,0
2018-01-01T07:47:13.395Z,0
2018-01-01T07:48:39.899Z,0
2018-01-01T07:50:21.587Z,0
2018-01-01T07:51:07.879Z,0
2018-01-01T07:51:37.854Z,0
2018-01-01T07:52:37.019Z,0
2018-01-01T07:53:05.039Z,0
2018-01-01T07:53:34.112Z,0
2018-01-01T07:54:02.541Z,0
2018-01-01T07:54:31.950Z,0
2018-01-01T07:55:05.164Z,0
2018-01-01T07:55:34.599Z,4
2018-01-01T07:56:03.734Z,4
2018-01-01T07:56:34.619Z,4
2018-01-01T07:58:29.319Z,4
2018-01-01T07:58:57.920Z,4
2018-01-01T07:59:26.505Z,4
2018-01-01T07:59:55.506Z,4
2018-01-01T08:00:38.847Z,4
2018-01-01T08:02:05.298Z,8
2018-01-01T08:02:33.964Z,8
2018-01-01T08:04:16.275Z,12
2018-01-01T08:04:44.315Z,12
2018-01-01T08:05:13.730Z,12
2018-01-01T08:05:42.197Z,16
2018-01-01T08:06:13.164Z,16
2018-01-01T08:06:41.515Z,16
2018-01-01T08:07:09.533Z,20
2018-01-01T08:07:53.051Z,24
2018-01-01T08:08:21.062Z,24
2018-01-01T08:08:49.318Z,28
2018-01-01T08:09:19.024Z,28
2018-01-01T08:09:47.928Z,32
2018-01-01T08:10:17.118Z,36
2018-01-01T08:10:47.375Z,40
2018-01-01T08:11:30.291Z,48
2018-01-01T08:12:41.298Z,64
2018-01-01T08:13:53.746Z,80
2018-01-01T08:14:23.050Z,88
2018-01-01T08:14:52.804Z,100
2018-01-01T08:15:21.926Z,104
2018-01-01T08:15:51.258Z,116
2018-01-01T08:16:38.055Z,144
2018-01-01T08:17:21.934Z,168
2018-01-01T08:18:04.793Z,192
2018-01-01T08:18:49.280Z,216
2018-01-01T08:19:19.294Z,232
2018-01-01T08:19:48.669Z,248
2018-01-01T08:20:31.976Z,280
2018-01-01T08:21:00.003Z,300
2018-01-01T08:21:28.866Z,332
2018-01-01T08:21:58.848Z,352
2018-01-01T08:22:26.767Z,372
2018-01-01T08:22:55.718Z,392
2018-01-01T08:23:38.589Z,420
2018-01-01T08:24:07.321Z,440
2018-01-01T08:24:35.891Z,464
2018-01-01T08:25:04.885Z,488
2018-01-01T08:25:34.327Z,516
2018-01-01T08:26:03.231Z,552
2018-01-01T08:26:33.221Z,596
2018-01-01T08:28:00.650Z,732
2018-01-01T08:28:29.026Z,748
2018-01-01T08:29:12.617Z,796
2018-01-01T08:29:41.008Z,824
2018-01-01T08:30:09.018Z,844
2018-01-01T08:30:37.893Z,864
2018-01-01T08:31:05.918Z,892
2018-01-01T08:31:34.725Z,920
2018-01-01T08:32:17.678Z,964
2018-01-01T08:32:46.263Z,988
2018-01-01T08:33:14.269Z,1016
2018-01-01T08:33:58.028Z,1092
2018-01-01T08:34:41.228Z,1236
2018-01-01T08:35:10.230Z,1280
2018-01-01T08:35:39.132Z,1328
2018-01-01T08:36:09.161Z,1368
2018-01-01T08:36:37.648Z,1424
2018-01-01T08:37:20.103Z,1496
2018-01-01T08:37:49.446Z,1556
2018-01-01T08:39:35.960Z,1736
2018-01-01T08:40:18.862Z,1800
2018-01-01T08:40:46.891Z,1860
2018-01-01T08:41:15.708Z,1996
2018-01-01T08:41:44.158Z,2056
2018-01-01T08:42:13.387Z,2152
2018-01-01T08:42:41.391Z,2232
2018-01-01T08:43:24.178Z,2300
2018-01-01T08:43:53.002Z,2188
2018-01-01T08:44:22.425Z,2188
2018-01-01T08:44:50.428Z,2100
2018-01-01T08:45:18.453Z,2156
2018-01-01T08:45:47.108Z,2312
2018-01-01T08:46:16.338Z,2592
2018-01-01T08:46:59.231Z,2744
2018-01-01T08:47:27.240Z,2548
2018-01-01T08:47:56.110Z,2504
2018-01-01T08:48:24.136Z,2656
2018-01-01T08:49:35.931Z,2740
2018-01-01T08:50:05.712Z,3048
2018-01-01T08:50:35.317Z,2704
2018-01-01T08:51:06.204Z,2480
2018-01-01T08:51:34.677Z,2356
2018-01-01T08:52:04.038Z,2124
2018-01-01T08:52:47.011Z,2096
2018-01-01T08:53:44.770Z,2308
2018-01-01T08:55:43.392Z,2368
2018-01-01T08:56:12.668Z,2616
2018-01-01T08:56:40.932Z,2832
2018-01-01T08:57:09.389Z,2908
2018-01-01T08:58:22.979Z,3120
2018-01-01T08:58:51.510Z,3832
2018-01-01T08:59:33.960Z,4116
2018-01-01T09:01:43.212Z,4916
2018-01-01T09:03:24.478Z,6768
2018-01-01T09:03:52.566Z,6980
2018-01-01T09:04:20.605Z,6976
2018-01-01T09:04:49.584Z,7020
2018-01-01T09:06:19.276Z,6956
2018-01-01T09:07:02.376Z,6044
2018-01-01T09:07:30.421Z,5556
2018-01-01T09:08:01.133Z,7052
2018-01-01T09:08:35.832Z,7456
2018-01-01T09:09:03.868Z,7308
2018-01-01T09:09:31.879Z,7404
2018-01-01T09:10:01.300Z,7408
2018-01-01T09:10:29.748Z,7524
2018-01-01T09:12:39.197Z,7412
2018-01-01T09:13:08.018Z,6676
2018-01-01T09:14:09.542Z,7832
2018-01-01T09:14:55.474Z,7736
2018-01-01T09:15:25.706Z,7812
2018-01-01T09:15:55.861Z,8068
2018-01-01T09:16:26.028Z,8216
2018-01-01T09:16:54.366Z,8184
2018-01-01T09:18:48.654Z,8564
2018-01-01T09:19:17.162Z,8708
2018-01-01T09:19:59.700Z,8844
2018-01-01T09:22:22.812Z,8912
2018-01-01T09:22:52.819Z,8916
2018-01-01T09:23:21.268Z,9076
2018-01-01T09:23:49.814Z,9300